This demonstration page uses our WeatherBlox Daily Observations layout. Learn more.

39.29038, -76.61219

Hourly Observations for October 29, 2015

Temp ( °F °C ) Dew Point ( °F °C ) Humidity (%) Winds ( mph kmh ) Pressure ( in mb ) Visibility ( mi km ) Precip ( " mm )
12:54 am 00:54 undefined 69 20.6 67 19.4 93 93 undefined N/A 29.6 1003 N/A 0 0
1:54 am 01:54 undefined 68 20 67 19.4 96 96 undefined N/A 29.59 1002 N/A 0.01 0.254
2:54 am 02:54 undefined 65 18.3 63 17.2 93 93 undefined N/A 29.61 1003 N/A 0 0
3:54 am 03:54 undefined 64 17.8 62 16.7 93 93 undefined N/A 29.61 1003 N/A 0 0
4:54 am 04:54 undefined 63 17.2 62 16.7 97 97 undefined N/A 29.6 1003 N/A 0 0
5:54 am 05:54 undefined 62 16.7 60 15.6 93 93 undefined N/A 29.6 1003 N/A 0 0
6:54 am 06:54 undefined 62 16.7 61 16.1 96 96 undefined N/A 29.62 1003 N/A 0 0
7:54 am 07:54 undefined 63 17.2 62 16.7 97 97 undefined N/A 29.65 1004 N/A 0 0
8:54 am 08:54 undefined 65 18.3 63 17.2 93 93 undefined N/A 29.68 1005 N/A 0 0
9:54 am 09:54 undefined 68 20 63 17.2 84 84 undefined N/A 29.69 1006 N/A 0 0
10:54 am 10:54 undefined 67 19.4 52 11.1 59 59 undefined N/A 29.7 1006 N/A 0 0
11:54 am 11:54 undefined 69 20.6 50 10 51 51 undefined N/A 29.7 1006 N/A 0 0
12:54 pm 12:54 undefined 70 21.1 45 7.2 41 41 undefined N/A 29.71 1006 N/A 0 0
1:54 pm 13:54 undefined 69 20.6 47 8.3 45 45 undefined N/A 29.7 1006 N/A 0 0
2:54 pm 14:54 undefined 69 20.6 44 6.7 41 41 undefined N/A 29.68 1005 N/A 0 0
3:54 pm 15:54 undefined 69 20.6 42 5.6 38 38 undefined N/A 29.67 1005 N/A 0 0
4:54 pm 16:54 undefined 68 20 39 3.9 35 35 undefined N/A 29.68 1005 N/A 0 0
5:54 pm 17:54 undefined 66 18.9 38 3.3 36 36 undefined N/A 29.68 1005 N/A 0 0
6:54 pm 18:54 undefined 63 17.2 39 3.9 41 41 undefined N/A 29.72 1006 N/A 0 0
7:54 pm 19:54 undefined 63 17.2 39 3.9 41 41 undefined N/A 29.74 1007 N/A 0 0
8:54 pm 20:54 undefined 62 16.7 38 3.3 41 41 undefined N/A 29.76 1008 N/A 0 0
9:54 pm 21:54 undefined 61 16.1 39 3.9 44 44 undefined N/A 29.78 1009 N/A 0 0
10:54 pm 22:54 undefined 60 15.6 38 3.3 44 44 undefined N/A 29.8 1009 N/A 0 0
11:54 pm 23:54 undefined 60 15.6 37 2.8 42 42 undefined N/A 29.82 1010 N/A 0 0

Powered by AerisWeather